sensor_id;sensor_type;location;lat;lon;timestamp;P1;durP1;ratioP1;P2;durP2;ratioP2
27899;SDS011;15243;50.726;7.080;2023-06-10T02:42:30;10.88;;;9.75;;
27899;SDS011;15243;50.726;7.080;2023-06-10T02:44:58;14.65;;;10.75;;
27899;SDS011;15243;50.726;7.080;2023-06-10T02:47:25;12.50;;;10.73;;
27899;SDS011;15243;50.726;7.080;2023-06-10T02:49:52;11.80;;;10.60;;
27899;SDS011;15243;50.726;7.080;2023-06-10T02:52:19;13.65;;;11.00;;
27899;SDS011;15243;50.726;7.080;2023-06-10T02:54:46;16.17;;;11.30;;
27899;SDS011;15243;50.726;7.080;2023-06-10T02:57:13;16.50;;;10.98;;
27899;SDS011;15243;50.726;7.080;2023-06-10T02:59:41;14.20;;;11.38;;
27899;SDS011;15243;50.726;7.080;2023-06-10T03:02:07;13.55;;;10.63;;
27899;SDS011;15243;50.726;7.080;2023-06-10T03:04:34;14.65;;;11.02;;
27899;SDS011;15243;50.726;7.080;2023-06-10T03:07:04;14.73;;;10.70;;
27899;SDS011;15243;50.726;7.080;2023-06-10T03:09:33;13.80;;;10.77;;
27899;SDS011;15243;50.726;7.080;2023-06-10T03:12:00;11.73;;;10.52;;
27899;SDS011;15243;50.726;7.080;2023-06-10T03:14:28;16.35;;;10.25;;
27899;SDS011;15243;50.726;7.080;2023-06-10T03:16:55;12.10;;;10.68;;
27899;SDS011;15243;50.726;7.080;2023-06-10T03:19:22;12.07;;;10.25;;
27899;SDS011;15243;50.726;7.080;2023-06-10T03:21:50;12.60;;;10.90;;
27899;SDS011;15243;50.726;7.080;2023-06-10T03:24:32;12.50;;;10.90;;
27899;SDS011;15243;50.726;7.080;2023-06-10T03:26:59;13.38;;;10.10;;
27899;SDS011;15243;50.726;7.080;2023-06-10T03:29:27;12.38;;;10.13;;
27899;SDS011;15243;50.726;7.080;2023-06-10T03:31:54;15.15;;;10.80;;
27899;SDS011;15243;50.726;7.080;2023-06-10T03:34:21;12.20;;;10.77;;
27899;SDS011;15243;50.726;7.080;2023-06-10T03:36:50;15.00;;;10.90;;
27899;SDS011;15243;50.726;7.080;2023-06-10T03:39:17;14.10;;;10.52;;
27899;SDS011;15243;50.726;7.080;2023-06-10T03:41:45;13.40;;;10.30;;
27899;SDS011;15243;50.726;7.080;2023-06-10T03:44:12;12.65;;;10.82;;
27899;SDS011;15243;50.726;7.080;2023-06-10T03:46:39;16.10;;;11.35;;
27899;SDS011;15243;50.726;7.080;2023-06-10T03:49:06;12.90;;;10.82;;
27899;SDS011;15243;50.726;7.080;2023-06-10T03:51:34;17.60;;;12.52;;
27899;SDS011;15243;50.726;7.080;2023-06-10T03:54:02;13.65;;;11.88;;
27899;SDS011;15243;50.726;7.080;2023-06-10T03:56:30;14.23;;;11.20;;
27899;SDS011;15243;50.726;7.080;2023-06-10T03:58:58;12.82;;;10.93;;
27899;SDS011;15243;50.726;7.080;2023-06-10T04:01:25;12.65;;;10.63;;
27899;SDS011;15243;50.726;7.080;2023-06-10T04:03:53;12.90;;;10.93;;
27899;SDS011;15243;50.726;7.080;2023-06-10T04:06:20;14.63;;;11.20;;
27899;SDS011;15243;50.726;7.080;2023-06-10T04:08:49;13.02;;;10.70;;
27899;SDS011;15243;50.726;7.080;2023-06-10T04:11:16;16.08;;;11.57;;
27899;SDS011;15243;50.726;7.080;2023-06-10T04:13:44;14.07;;;11.13;;
27899;SDS011;15243;50.726;7.080;2023-06-10T04:16:11;14.98;;;12.07;;
27899;SDS011;15243;50.726;7.080;2023-06-10T04:18:38;15.70;;;11.30;;
27899;SDS011;15243;50.726;7.080;2023-06-10T04:21:05;15.40;;;11.18;;
27899;SDS011;15243;50.726;7.080;2023-06-10T04:23:33;13.18;;;10.95;;
27899;SDS011;15243;50.726;7.080;2023-06-10T04:26:02;12.65;;;10.85;;
27899;SDS011;15243;50.726;7.080;2023-06-10T04:28:29;14.50;;;11.55;;
27899;SDS011;15243;50.726;7.080;2023-06-10T04:30:56;14.38;;;10.57;;
27899;SDS011;15243;50.726;7.080;2023-06-10T04:33:24;15.85;;;11.18;;
27899;SDS011;15243;50.726;7.080;2023-06-10T04:35:51;12.57;;;9.93;;
27899;SDS011;15243;50.726;7.080;2023-06-10T04:38:18;16.85;;;11.07;;
27899;SDS011;15243;50.726;7.080;2023-06-10T04:40:45;12.90;;;10.45;;
27899;SDS011;15243;50.726;7.080;2023-06-10T04:43:12;11.63;;;10.43;;
27899;SDS011;15243;50.726;7.080;2023-06-10T04:45:39;25.27;;;10.70;;
27899;SDS011;15243;50.726;7.080;2023-06-10T04:48:11;13.60;;;10.57;;
27899;SDS011;15243;50.726;7.080;2023-06-10T04:50:38;11.75;;;10.13;;
27899;SDS011;15243;50.726;7.080;2023-06-10T04:53:05;13.95;;;10.15;;
27899;SDS011;15243;50.726;7.080;2023-06-10T04:55:32;11.65;;;10.43;;
27899;SDS011;15243;50.726;7.080;2023-06-10T04:58:00;12.80;;;10.15;;
27899;SDS011;15243;50.726;7.080;2023-06-10T05:00:28;10.93;;;9.80;;
27899;SDS011;15243;50.726;7.080;2023-06-10T05:02:55;12.38;;;9.98;;
27899;SDS011;15243;50.726;7.080;2023-06-10T05:05:23;13.60;;;9.57;;
27899;SDS011;15243;50.726;7.080;2023-06-10T05:07:50;11.88;;;9.68;;
27899;SDS011;15243;50.726;7.080;2023-06-10T05:10:17;14.90;;;10.88;;
27899;SDS011;15243;50.726;7.080;2023-06-10T05:12:44;13.68;;;10.65;;
27899;SDS011;15243;50.726;7.080;2023-06-10T05:15:11;13.07;;;10.57;;
27899;SDS011;15243;50.726;7.080;2023-06-10T05:17:39;13.43;;;11.05;;
27899;SDS011;15243;50.726;7.080;2023-06-10T05:20:06;14.02;;;10.20;;
27899;SDS011;15243;50.726;7.080;2023-06-10T05:22:34;16.67;;;12.10;;
27899;SDS011;15243;50.726;7.080;2023-06-10T05:25:01;14.02;;;11.10;;
27899;SDS011;15243;50.726;7.080;2023-06-10T05:27:29;19.20;;;13.77;;
27899;SDS011;15243;50.726;7.080;2023-06-10T05:29:56;22.05;;;12.18;;
27899;SDS011;15243;50.726;7.080;2023-06-10T05:32:23;18.55;;;14.25;;
27899;SDS011;15243;50.726;7.080;2023-06-10T05:34:51;18.13;;;13.57;;
27899;SDS011;15243;50.726;7.080;2023-06-10T05:37:18;18.77;;;13.02;;
27899;SDS011;15243;50.726;7.080;2023-06-10T05:39:45;23.00;;;14.43;;
27899;SDS011;15243;50.726;7.080;2023-06-10T05:42:12;26.83;;;16.88;;
27899;SDS011;15243;50.726;7.080;2023-06-10T05:44:39;24.20;;;15.88;;
27899;SDS011;15243;50.726;7.080;2023-06-10T05:47:06;24.92;;;15.90;;
27899;SDS011;15243;50.726;7.080;2023-06-10T05:49:33;30.95;;;17.05;;
27899;SDS011;15243;50.726;7.080;2023-06-10T05:52:01;27.52;;;15.57;;
27899;SDS011;15243;50.726;7.080;2023-06-10T05:54:28;25.38;;;15.50;;
27899;SDS011;15243;50.726;7.080;2023-06-10T05:56:55;22.67;;;14.40;;
27899;SDS011;15243;50.726;7.080;2023-06-10T05:59:22;24.63;;;14.15;;
27899;SDS011;15243;50.726;7.080;2023-06-10T06:01:49;23.15;;;13.55;;
27899;SDS011;15243;50.726;7.080;2023-06-10T06:04:16;21.30;;;13.75;;
27899;SDS011;15243;50.726;7.080;2023-06-10T06:06:43;18.27;;;11.75;;
27899;SDS011;15243;50.726;7.080;2023-06-10T06:09:10;20.35;;;12.43;;
27899;SDS011;15243;50.726;7.080;2023-06-10T06:11:38;16.88;;;10.25;;
27899;SDS011;15243;50.726;7.080;2023-06-10T06:14:05;13.98;;;10.18;;
27899;SDS011;15243;50.726;7.080;2023-06-10T06:16:32;16.27;;;8.65;;
27899;SDS011;15243;50.726;7.080;2023-06-10T06:18:59;9.80;;;8.10;;
27899;SDS011;15243;50.726;7.080;2023-06-10T06:21:26;11.75;;;8.20;;
27899;SDS011;15243;50.726;7.080;2023-06-10T06:23:53;12.07;;;8.30;;
27899;SDS011;15243;50.726;7.080;2023-06-10T06:26:20;14.73;;;8.40;;
27899;SDS011;15243;50.726;7.080;2023-06-10T06:28:47;10.30;;;8.15;;
27899;SDS011;15243;50.726;7.080;2023-06-10T06:31:14;9.45;;;7.72;;
27899;SDS011;15243;50.726;7.080;2023-06-10T06:33:42;11.18;;;7.68;;
27899;SDS011;15243;50.726;7.080;2023-06-10T06:36:11;9.70;;;7.45;;
27899;SDS011;15243;50.726;7.080;2023-06-10T06:38:38;10.15;;;7.68;;
27899;SDS011;15243;50.726;7.080;2023-06-10T06:41:05;8.25;;;7.43;;
27899;SDS011;15243;50.726;7.080;2023-06-10T06:43:32;10.45;;;7.30;;
27899;SDS011;15243;50.726;7.080;2023-06-10T06:46:00;14.18;;;9.00;;
27899;SDS011;15243;50.726;7.080;2023-06-10T06:48:27;13.02;;;7.10;;
27899;SDS011;15243;50.726;7.080;2023-06-10T06:50:54;14.88;;;7.10;;
27899;SDS011;15243;50.726;7.080;2023-06-10T06:53:22;10.35;;;7.00;;
27899;SDS011;15243;50.726;7.080;2023-06-10T06:55:49;10.20;;;6.90;;
27899;SDS011;15243;50.726;7.080;2023-06-10T06:58:16;10.20;;;6.80;;
27899;SDS011;15243;50.726;7.080;2023-06-10T07:00:43;10.70;;;7.00;;
27899;SDS011;15243;50.726;7.080;2023-06-10T07:03:10;11.63;;;6.63;;
27899;SDS011;15243;50.726;7.080;2023-06-10T07:05:37;9.20;;;7.03;;
27899;SDS011;15243;50.726;7.080;2023-06-10T07:08:05;7.57;;;6.13;;
27899;SDS011;15243;50.726;7.080;2023-06-10T07:10:32;9.40;;;6.72;;
27899;SDS011;15243;50.726;7.080;2023-06-10T07:12:59;10.40;;;6.68;;
27899;SDS011;15243;50.726;7.080;2023-06-10T07:15:26;11.10;;;7.13;;
27899;SDS011;15243;50.726;7.080;2023-06-10T07:17:53;9.35;;;6.55;;
27899;SDS011;15243;50.726;7.080;2023-06-10T07:20:22;12.55;;;6.15;;
27899;SDS011;15243;50.726;7.080;2023-06-10T07:22:48;12.27;;;5.53;;
27899;SDS011;15243;50.726;7.080;2023-06-10T07:25:15;8.13;;;6.03;;
27899;SDS011;15243;50.726;7.080;2023-06-10T07:27:42;8.75;;;5.95;;
27899;SDS011;15243;50.726;7.080;2023-06-10T07:30:09;8.05;;;5.78;;
27899;SDS011;15243;50.726;7.080;2023-06-10T07:32:37;7.95;;;6.43;;
27899;SDS011;15243;50.726;7.080;2023-06-10T07:35:06;9.98;;;6.53;;
27899;SDS011;15243;50.726;7.080;2023-06-10T08:42:33;9.00;;;6.20;;
27899;SDS011;15243;50.726;7.080;2023-06-10T08:45:15;10.00;;;6.63;;
27899;SDS011;15243;50.726;7.080;2023-06-10T08:47:44;9.82;;;6.50;;
27899;SDS011;15243;50.726;7.080;2023-06-10T08:50:15;8.40;;;6.35;;
27899;SDS011;15243;50.726;7.080;2023-06-10T08:52:43;8.50;;;6.22;;
27899;SDS011;15243;50.726;7.080;2023-06-10T08:55:21;10.65;;;5.90;;
27899;SDS011;15243;50.726;7.080;2023-06-10T08:58:01;9.43;;;6.93;;
27899;SDS011;15243;50.726;7.080;2023-06-10T09:00:28;9.27;;;6.50;;
27899;SDS011;15243;50.726;7.080;2023-06-10T09:02:57;10.35;;;6.15;;
27899;SDS011;15243;50.726;7.080;2023-06-10T09:05:33;10.00;;;6.93;;
27899;SDS011;15243;50.726;7.080;2023-06-10T09:08:03;12.13;;;6.70;;
27899;SDS011;15243;50.726;7.080;2023-06-10T09:10:32;11.18;;;6.50;;
27899;SDS011;15243;50.726;7.080;2023-06-10T09:12:59;15.48;;;7.05;;
27899;SDS011;15243;50.726;7.080;2023-06-10T09:15:26;14.30;;;6.65;;
27899;SDS011;15243;50.726;7.080;2023-06-10T09:17:53;7.70;;;6.47;;
27899;SDS011;15243;50.726;7.080;2023-06-10T09:20:21;10.00;;;6.45;;
27899;SDS011;15243;50.726;7.080;2023-06-10T09:22:48;10.48;;;6.05;;
27899;SDS011;15243;50.726;7.080;2023-06-10T09:25:16;11.23;;;6.47;;
27899;SDS011;15243;50.726;7.080;2023-06-10T09:27:49;8.02;;;6.28;;
27899;SDS011;15243;50.726;7.080;2023-06-10T09:30:27;7.57;;;5.85;;
27899;SDS011;15243;50.726;7.080;2023-06-10T09:32:55;8.05;;;6.18;;
27899;SDS011;15243;50.726;7.080;2023-06-10T09:35:24;8.60;;;5.88;;
27899;SDS011;15243;50.726;7.080;2023-06-10T09:37:53;8.25;;;6.03;;
27899;SDS011;15243;50.726;7.080;2023-06-10T09:40:21;10.07;;;6.45;;
27899;SDS011;15243;50.726;7.080;2023-06-10T09:43:07;10.60;;;6.38;;
27899;SDS011;15243;50.726;7.080;2023-06-10T09:45:33;11.20;;;6.38;;
27899;SDS011;15243;50.726;7.080;2023-06-10T09:48:01;11.63;;;6.35;;
27899;SDS011;15243;50.726;7.080;2023-06-10T09:50:28;9.52;;;6.70;;
27899;SDS011;15243;50.726;7.080;2023-06-10T09:53:00;6.30;;;5.45;;
27899;SDS011;15243;50.726;7.080;2023-06-10T09:55:29;8.38;;;6.28;;
27899;SDS011;15243;50.726;7.080;2023-06-10T09:58:00;9.57;;;6.18;;
27899;SDS011;15243;50.726;7.080;2023-06-10T10:00:27;9.38;;;6.13;;
27899;SDS011;15243;50.726;7.080;2023-06-10T10:02:54;7.65;;;6.00;;
27899;SDS011;15243;50.726;7.080;2023-06-10T10:05:23;10.05;;;6.95;;
27899;SDS011;15243;50.726;7.080;2023-06-10T10:07:51;9.15;;;5.60;;
27899;SDS011;15243;50.726;7.080;2023-06-10T10:10:20;10.35;;;6.30;;
27899;SDS011;15243;50.726;7.080;2023-06-10T10:12:48;7.45;;;6.22;;
27899;SDS011;15243;50.726;7.080;2023-06-10T10:15:17;8.35;;;5.47;;
27899;SDS011;15243;50.726;7.080;2023-06-10T10:17:49;6.40;;;5.68;;
27899;SDS011;15243;50.726;7.080;2023-06-10T10:20:24;8.77;;;5.47;;
27899;SDS011;15243;50.726;7.080;2023-06-10T10:22:58;7.93;;;6.18;;
27899;SDS011;15243;50.726;7.080;2023-06-10T10:25:34;11.25;;;5.43;;
27899;SDS011;15243;50.726;7.080;2023-06-10T10:28:11;9.10;;;5.60;;
27899;SDS011;15243;50.726;7.080;2023-06-10T10:30:40;9.77;;;6.07;;
27899;SDS011;15243;50.726;7.080;2023-06-10T10:33:12;5.97;;;5.38;;
27899;SDS011;15243;50.726;7.080;2023-06-10T10:35:43;7.30;;;5.50;;
27899;SDS011;15243;50.726;7.080;2023-06-10T10:38:12;12.35;;;5.75;;
27899;SDS011;15243;50.726;7.080;2023-06-10T10:40:39;6.40;;;5.68;;
27899;SDS011;15243;50.726;7.080;2023-06-10T10:43:07;10.40;;;5.60;;
27899;SDS011;15243;50.726;7.080;2023-06-10T10:45:35;9.50;;;5.50;;
27899;SDS011;15243;50.726;7.080;2023-06-10T10:48:06;8.20;;;5.18;;
27899;SDS011;15243;50.726;7.080;2023-06-10T10:50:38;12.20;;;5.32;;
27899;SDS011;15243;50.726;7.080;2023-06-10T10:53:07;7.07;;;5.85;;
27899;SDS011;15243;50.726;7.080;2023-06-10T10:55:34;6.25;;;5.65;;
27899;SDS011;15243;50.726;7.080;2023-06-10T10:58:06;7.85;;;6.00;;
27899;SDS011;15243;50.726;7.080;2023-06-10T11:00:34;10.50;;;6.30;;
27899;SDS011;15243;50.726;7.080;2023-06-10T11:08:08;7.05;;;5.65;;
27899;SDS011;15243;50.726;7.080;2023-06-10T11:13:13;11.18;;;5.43;;
27899;SDS011;15243;50.726;7.080;2023-06-10T11:15:45;10.15;;;6.10;;
27899;SDS011;15243;50.726;7.080;2023-06-10T11:18:15;10.85;;;5.63;;
27899;SDS011;15243;50.726;7.080;2023-06-10T11:21:01;9.10;;;5.65;;
27899;SDS011;15243;50.726;7.080;2023-06-10T11:31:43;8.80;;;5.28;;
27899;SDS011;15243;50.726;7.080;2023-06-10T11:34:12;6.72;;;5.03;;
27899;SDS011;15243;50.726;7.080;2023-06-10T11:36:41;7.65;;;5.60;;
27899;SDS011;15243;50.726;7.080;2023-06-10T11:39:11;7.40;;;5.65;;
27899;SDS011;15243;50.726;7.080;2023-06-10T11:41:39;8.32;;;5.60;;
27899;SDS011;15243;50.726;7.080;2023-06-10T11:44:07;7.63;;;5.43;;
27899;SDS011;15243;50.726;7.080;2023-06-10T11:46:47;6.80;;;4.90;;
27899;SDS011;15243;50.726;7.080;2023-06-10T11:49:15;5.82;;;5.32;;
27899;SDS011;15243;50.726;7.080;2023-06-10T11:51:42;6.45;;;5.38;;
27899;SDS011;15243;50.726;7.080;2023-06-10T11:54:16;9.05;;;5.72;;
27899;SDS011;15243;50.726;7.080;2023-06-10T11:56:44;9.15;;;4.63;;
27899;SDS011;15243;50.726;7.080;2023-06-10T11:59:11;6.18;;;4.30;;
27899;SDS011;15243;50.726;7.080;2023-06-10T12:01:42;8.40;;;4.82;;
27899;SDS011;15243;50.726;7.080;2023-06-10T12:04:14;8.85;;;4.68;;
27899;SDS011;15243;50.726;7.080;2023-06-10T12:12:02;6.80;;;4.10;;
27899;SDS011;15243;50.726;7.080;2023-06-10T12:19:58;7.28;;;4.57;;
27899;SDS011;15243;50.726;7.080;2023-06-10T12:22:26;10.40;;;3.85;;
27899;SDS011;15243;50.726;7.080;2023-06-10T12:25:00;9.30;;;4.78;;
27899;SDS011;15243;50.726;7.080;2023-06-10T12:27:31;7.15;;;4.30;;
27899;SDS011;15243;50.726;7.080;2023-06-10T12:29:58;6.57;;;4.50;;
27899;SDS011;15243;50.726;7.080;2023-06-10T12:32:34;6.30;;;4.10;;
27899;SDS011;15243;50.726;7.080;2023-06-10T12:35:04;5.20;;;4.47;;
27899;SDS011;15243;50.726;7.080;2023-06-10T12:37:33;5.82;;;3.72;;
27899;SDS011;15243;50.726;7.080;2023-06-10T12:40:01;4.45;;;4.05;;
27899;SDS011;15243;50.726;7.080;2023-06-10T12:42:30;6.00;;;4.00;;
27899;SDS011;15243;50.726;7.080;2023-06-10T12:44:57;5.30;;;3.92;;
27899;SDS011;15243;50.726;7.080;2023-06-10T12:47:31;8.65;;;4.13;;
27899;SDS011;15243;50.726;7.080;2023-06-10T12:50:03;8.90;;;3.80;;
27899;SDS011;15243;50.726;7.080;2023-06-10T12:52:31;16.67;;;4.40;;
27899;SDS011;15243;50.726;7.080;2023-06-10T12:54:59;7.70;;;4.20;;
27899;SDS011;15243;50.726;7.080;2023-06-10T12:57:27;6.32;;;4.20;;
27899;SDS011;15243;50.726;7.080;2023-06-10T12:59:54;5.38;;;3.95;;
27899;SDS011;15243;50.726;7.080;2023-06-10T13:04:53;8.35;;;4.28;;
27899;SDS011;15243;50.726;7.080;2023-06-10T13:07:20;10.52;;;4.45;;
27899;SDS011;15243;50.726;7.080;2023-06-10T13:09:49;5.75;;;3.80;;
27899;SDS011;15243;50.726;7.080;2023-06-10T13:12:16;8.93;;;4.35;;
27899;SDS011;15243;50.726;7.080;2023-06-10T13:14:55;5.05;;;3.97;;
27899;SDS011;15243;50.726;7.080;2023-06-10T13:17:23;5.10;;;3.92;;
27899;SDS011;15243;50.726;7.080;2023-06-10T13:19:50;6.65;;;3.88;;
27899;SDS011;15243;50.726;7.080;2023-06-10T13:22:18;6.75;;;4.40;;
27899;SDS011;15243;50.726;7.080;2023-06-10T13:24:46;7.30;;;4.38;;
27899;SDS011;15243;50.726;7.080;2023-06-10T13:27:14;7.05;;;4.05;;
27899;SDS011;15243;50.726;7.080;2023-06-10T13:29:41;6.68;;;4.20;;
27899;SDS011;15243;50.726;7.080;2023-06-10T13:32:08;8.27;;;3.88;;
27899;SDS011;15243;50.726;7.080;2023-06-10T13:34:35;4.30;;;3.90;;
27899;SDS011;15243;50.726;7.080;2023-06-10T13:37:02;9.15;;;3.90;;
27899;SDS011;15243;50.726;7.080;2023-06-10T13:39:31;7.10;;;3.85;;
27899;SDS011;15243;50.726;7.080;2023-06-10T13:41:58;5.57;;;3.75;;
27899;SDS011;15243;50.726;7.080;2023-06-10T13:44:25;4.57;;;3.80;;
27899;SDS011;15243;50.726;7.080;2023-06-10T13:46:53;10.27;;;3.60;;
27899;SDS011;15243;50.726;7.080;2023-06-10T13:49:20;4.82;;;3.67;;
27899;SDS011;15243;50.726;7.080;2023-06-10T13:51:47;6.05;;;3.83;;
27899;SDS011;15243;50.726;7.080;2023-06-10T13:54:14;3.95;;;3.60;;
27899;SDS011;15243;50.726;7.080;2023-06-10T13:56:42;4.75;;;3.20;;
27899;SDS011;15243;50.726;7.080;2023-06-10T13:59:09;6.60;;;3.75;;
27899;SDS011;15243;50.726;7.080;2023-06-10T14:01:36;5.45;;;3.53;;
27899;SDS011;15243;50.726;7.080;2023-06-10T14:04:04;4.07;;;3.58;;
27899;SDS011;15243;50.726;7.080;2023-06-10T14:06:31;3.95;;;3.35;;
27899;SDS011;15243;50.726;7.080;2023-06-10T14:08:59;6.55;;;3.50;;
27899;SDS011;15243;50.726;7.080;2023-06-10T14:11:26;4.78;;;3.20;;
27899;SDS011;15243;50.726;7.080;2023-06-10T14:13:54;4.55;;;3.63;;
27899;SDS011;15243;50.726;7.080;2023-06-10T14:16:24;3.92;;;3.58;;
27899;SDS011;15243;50.726;7.080;2023-06-10T14:18:51;7.28;;;3.53;;
27899;SDS011;15243;50.726;7.080;2023-06-10T15:10:30;4.88;;;3.40;;
27899;SDS011;15243;50.726;7.080;2023-06-10T15:12:58;6.95;;;3.53;;
27899;SDS011;15243;50.726;7.080;2023-06-10T15:15:25;6.57;;;3.50;;
27899;SDS011;15243;50.726;7.080;2023-06-10T15:17:52;4.45;;;3.20;;
27899;SDS011;15243;50.726;7.080;2023-06-10T16:20:58;8.43;;;3.75;;
27899;SDS011;15243;50.726;7.080;2023-06-10T16:23:26;7.15;;;4.50;;
27899;SDS011;15243;50.726;7.080;2023-06-10T16:25:53;5.65;;;3.70;;
27899;SDS011;15243;50.726;7.080;2023-06-10T16:28:20;4.82;;;4.03;;
27899;SDS011;15243;50.726;7.080;2023-06-10T16:30:47;7.07;;;3.60;;
27899;SDS011;15243;50.726;7.080;2023-06-10T16:33:14;7.22;;;3.60;;
27899;SDS011;15243;50.726;7.080;2023-06-10T16:35:42;3.78;;;3.47;;
27899;SDS011;15243;50.726;7.080;2023-06-10T16:38:09;6.43;;;3.90;;
27899;SDS011;15243;50.726;7.080;2023-06-10T16:40:36;5.05;;;3.85;;
27899;SDS011;15243;50.726;7.080;2023-06-10T16:43:03;5.95;;;3.47;;
27899;SDS011;15243;50.726;7.080;2023-06-10T16:45:31;6.65;;;3.58;;
27899;SDS011;15243;50.726;7.080;2023-06-10T16:47:58;4.30;;;3.33;;
27899;SDS011;15243;50.726;7.080;2023-06-10T16:50:26;5.38;;;3.72;;
27899;SDS011;15243;50.726;7.080;2023-06-10T16:52:53;5.97;;;3.58;;
27899;SDS011;15243;50.726;7.080;2023-06-10T16:55:20;4.38;;;3.88;;
27899;SDS011;15243;50.726;7.080;2023-06-10T16:57:48;4.60;;;3.40;;
27899;SDS011;15243;50.726;7.080;2023-06-10T17:00:15;6.30;;;3.75;;
27899;SDS011;15243;50.726;7.080;2023-06-10T17:02:43;5.90;;;4.03;;
27899;SDS011;15243;50.726;7.080;2023-06-10T17:05:10;5.95;;;3.30;;
27899;SDS011;15243;50.726;7.080;2023-06-10T17:07:38;6.80;;;4.18;;
27899;SDS011;15243;50.726;7.080;2023-06-10T17:10:05;7.70;;;3.45;;
27899;SDS011;15243;50.726;7.080;2023-06-10T17:12:33;5.47;;;3.65;;
27899;SDS011;15243;50.726;7.080;2023-06-10T17:14:59;7.10;;;3.70;;
27899;SDS011;15243;50.726;7.080;2023-06-10T17:17:27;6.32;;;3.60;;
27899;SDS011;15243;50.726;7.080;2023-06-10T17:19:54;5.43;;;4.07;;
27899;SDS011;15243;50.726;7.080;2023-06-10T17:22:22;7.18;;;3.53;;
27899;SDS011;15243;50.726;7.080;2023-06-10T17:24:49;6.93;;;3.85;;
27899;SDS011;15243;50.726;7.080;2023-06-10T17:27:16;7.57;;;4.03;;
27899;SDS011;15243;50.726;7.080;2023-06-10T17:29:43;5.55;;;4.00;;
27899;SDS011;15243;50.726;7.080;2023-06-10T17:32:10;5.32;;;3.85;;
27899;SDS011;15243;50.726;7.080;2023-06-10T17:34:37;6.10;;;3.78;;
27899;SDS011;15243;50.726;7.080;2023-06-10T17:37:04;6.97;;;4.18;;
27899;SDS011;15243;50.726;7.080;2023-06-10T17:39:32;9.43;;;4.50;;
27899;SDS011;15243;50.726;7.080;2023-06-10T17:41:59;5.70;;;4.00;;
27899;SDS011;15243;50.726;7.080;2023-06-10T17:44:26;7.95;;;4.25;;
27899;SDS011;15243;50.726;7.080;2023-06-10T17:46:55;5.30;;;4.07;;
27899;SDS011;15243;50.726;7.080;2023-06-10T17:49:22;5.03;;;4.00;;
27899;SDS011;15243;50.726;7.080;2023-06-10T17:51:58;7.10;;;4.13;;
27899;SDS011;15243;50.726;7.080;2023-06-10T17:54:25;7.72;;;4.35;;
27899;SDS011;15243;50.726;7.080;2023-06-10T17:56:52;8.02;;;4.63;;
27899;SDS011;15243;50.726;7.080;2023-06-10T17:59:20;5.97;;;4.35;;
27899;SDS011;15243;50.726;7.080;2023-06-10T18:01:48;7.18;;;4.20;;
27899;SDS011;15243;50.726;7.080;2023-06-10T18:04:15;7.70;;;4.43;;
27899;SDS011;15243;50.726;7.080;2023-06-10T18:06:42;9.20;;;4.22;;
27899;SDS011;15243;50.726;7.080;2023-06-10T18:09:09;7.82;;;5.25;;
27899;SDS011;15243;50.726;7.080;2023-06-10T18:11:38;5.43;;;4.07;;
27899;SDS011;15243;50.726;7.080;2023-06-10T18:14:05;4.45;;;3.95;;
27899;SDS011;15243;50.726;7.080;2023-06-10T18:16:32;7.15;;;4.28;;
27899;SDS011;15243;50.726;7.080;2023-06-10T18:18:59;8.05;;;4.15;;
27899;SDS011;15243;50.726;7.080;2023-06-10T18:21:27;5.88;;;4.03;;
27899;SDS011;15243;50.726;7.080;2023-06-10T18:23:54;4.65;;;3.53;;
27899;SDS011;15243;50.726;7.080;2023-06-10T18:26:21;7.65;;;4.40;;
27899;SDS011;15243;50.726;7.080;2023-06-10T18:28:49;8.40;;;4.22;;
27899;SDS011;15243;50.726;7.080;2023-06-10T18:31:16;8.40;;;4.60;;
27899;SDS011;15243;50.726;7.080;2023-06-10T18:33:44;7.10;;;4.20;;
27899;SDS011;15243;50.726;7.080;2023-06-10T18:36:11;6.93;;;4.05;;
27899;SDS011;15243;50.726;7.080;2023-06-10T18:38:38;5.78;;;4.53;;
27899;SDS011;15243;50.726;7.080;2023-06-10T18:41:05;6.97;;;4.28;;
27899;SDS011;15243;50.726;7.080;2023-06-10T18:43:32;8.60;;;4.93;;
27899;SDS011;15243;50.726;7.080;2023-06-10T18:45:59;6.45;;;4.40;;
27899;SDS011;15243;50.726;7.080;2023-06-10T18:48:27;7.07;;;4.35;;
27899;SDS011;15243;50.726;7.080;2023-06-10T18:50:55;5.60;;;4.15;;
27899;SDS011;15243;50.726;7.080;2023-06-10T18:53:22;5.35;;;3.95;;
27899;SDS011;15243;50.726;7.080;2023-06-10T18:55:50;9.93;;;4.60;;
27899;SDS011;15243;50.726;7.080;2023-06-10T18:58:17;6.72;;;4.40;;
27899;SDS011;15243;50.726;7.080;2023-06-10T19:00:44;6.50;;;4.32;;
27899;SDS011;15243;50.726;7.080;2023-06-10T19:03:11;7.20;;;4.53;;
27899;SDS011;15243;50.726;7.080;2023-06-10T19:05:39;6.93;;;4.55;;
27899;SDS011;15243;50.726;7.080;2023-06-10T19:08:05;6.60;;;4.60;;
27899;SDS011;15243;50.726;7.080;2023-06-10T19:10:33;8.88;;;5.05;;
27899;SDS011;15243;50.726;7.080;2023-06-10T19:13:00;8.38;;;5.07;;
27899;SDS011;15243;50.726;7.080;2023-06-10T19:15:27;5.53;;;4.60;;
27899;SDS011;15243;50.726;7.080;2023-06-10T19:17:54;7.85;;;4.75;;
27899;SDS011;15243;50.726;7.080;2023-06-10T19:20:21;7.68;;;4.25;;
27899;SDS011;15243;50.726;7.080;2023-06-10T19:22:48;7.95;;;4.70;;
27899;SDS011;15243;50.726;7.080;2023-06-10T19:25:15;6.10;;;4.50;;
27899;SDS011;15243;50.726;7.080;2023-06-10T19:27:45;6.07;;;4.63;;
27899;SDS011;15243;50.726;7.080;2023-06-10T19:30:12;6.03;;;4.25;;
27899;SDS011;15243;50.726;7.080;2023-06-10T19:32:39;9.65;;;4.53;;
27899;SDS011;15243;50.726;7.080;2023-06-10T19:35:06;8.80;;;4.85;;
27899;SDS011;15243;50.726;7.080;2023-06-10T19:37:34;7.13;;;4.88;;
27899;SDS011;15243;50.726;7.080;2023-06-10T19:40:01;8.85;;;4.78;;
27899;SDS011;15243;50.726;7.080;2023-06-10T19:42:29;7.53;;;4.97;;
27899;SDS011;15243;50.726;7.080;2023-06-10T19:44:56;8.80;;;5.20;;
27899;SDS011;15243;50.726;7.080;2023-06-10T19:47:23;7.95;;;5.13;;
27899;SDS011;15243;50.726;7.080;2023-06-10T19:49:49;7.05;;;5.32;;
27899;SDS011;15243;50.726;7.080;2023-06-10T19:52:16;11.23;;;5.38;;
27899;SDS011;15243;50.726;7.080;2023-06-10T19:54:44;7.75;;;4.93;;
27899;SDS011;15243;50.726;7.080;2023-06-10T19:57:11;5.38;;;4.88;;
27899;SDS011;15243;50.726;7.080;2023-06-10T19:59:39;9.40;;;5.25;;
27899;SDS011;15243;50.726;7.080;2023-06-10T20:02:07;7.28;;;5.50;;
27899;SDS011;15243;50.726;7.080;2023-06-10T20:04:36;10.48;;;5.20;;
27899;SDS011;15243;50.726;7.080;2023-06-10T20:07:03;7.22;;;5.22;;
27899;SDS011;15243;50.726;7.080;2023-06-10T20:09:30;8.55;;;5.07;;
27899;SDS011;15243;50.726;7.080;2023-06-10T20:11:57;7.13;;;5.32;;
27899;SDS011;15243;50.726;7.080;2023-06-10T20:14:27;7.18;;;5.80;;
27899;SDS011;15243;50.726;7.080;2023-06-10T20:16:54;8.38;;;5.57;;
27899;SDS011;15243;50.726;7.080;2023-06-10T20:19:22;8.93;;;6.57;;
27899;SDS011;15243;50.726;7.080;2023-06-10T20:21:49;7.55;;;5.45;;
27899;SDS011;15243;50.726;7.080;2023-06-10T20:24:16;7.55;;;5.43;;
27899;SDS011;15243;50.726;7.080;2023-06-10T20:26:43;10.52;;;5.60;;
27899;SDS011;15243;50.726;7.080;2023-06-10T20:29:11;8.60;;;5.95;;
27899;SDS011;15243;50.726;7.080;2023-06-10T20:31:38;7.25;;;5.43;;
27899;SDS011;15243;50.726;7.080;2023-06-10T20:34:05;13.90;;;5.18;;
27899;SDS011;15243;50.726;7.080;2023-06-10T20:36:33;7.85;;;5.00;;
27899;SDS011;15243;50.726;7.080;2023-06-10T20:39:00;8.32;;;5.60;;
27899;SDS011;15243;50.726;7.080;2023-06-10T20:41:27;26.02;;;14.40;;
27899;SDS011;15243;50.726;7.080;2023-06-10T20:43:55;15.65;;;8.65;;
27899;SDS011;15243;50.726;7.080;2023-06-10T20:46:24;6.57;;;5.13;;
27899;SDS011;15243;50.726;7.080;2023-06-10T20:48:51;7.22;;;5.57;;